Time;durP1;ratioP1;P1;durP2;ratioP2;P2;SDS_P1;SDS_P2;PMS_P1;PMS_P2;Temp;Humidity;BMP_temperature;BMP_pressure;BME280_temperature;BME280_humidity;BME280_pressure;Samples;Min_cycle;Max_cycle;Signal;HPM_P1;HPM_P2
2023/09/09 00:12:27;;;;;;;41.73;34.70;;;14.30;99.90;;;;;;5604175;24;20194;-84
2023/09/09 00:42:57;;;;;;;37.87;33.17;;;14.20;99.90;;;;;;5799839;24;20595;-85
2023/09/09 01:17:44;;;;;;;35.27;31.13;;;14.00;99.90;;;;;;5756384;24;20543;-86
2023/09/09 01:38:23;;;;;;;36.37;30.03;;;13.90;99.90;;;;;;5818426;23;20745;-85
2023/09/09 02:33:48;;;;;;;37.40;31.97;;;13.60;99.90;;;;;;5998656;22;20605;-84
2023/09/09 02:49:45;;;;;;;36.83;32.67;;;13.50;99.90;;;;;;5949186;23;20335;-86
2023/09/09 03:35:24;;;;;;;33.13;29.47;;;13.20;99.90;;;;;;5738872;24;20165;-82
2023/09/09 03:39:45;;;;;;;33.57;30.03;;;13.10;99.90;;;;;;5681026;24;20598;-84
2023/09/09 04:05:06;;;;;;;33.63;29.23;;;13.10;99.90;;;;;;5884120;23;20563;-85
2023/09/09 04:26:06;;;;;;;33.93;29.60;;;13.20;99.90;;;;;;5683568;24;20543;-84
2023/09/09 05:00:54;;;;;;;34.40;30.03;;;13.40;99.90;;;;;;5728950;24;20494;-85
2023/09/09 05:26:40;;;;;;;34.43;30.50;;;14.20;99.90;;;;;;5893918;23;20224;-83
2023/09/09 06:17:27;;;;;;;33.20;29.67;;;17.30;99.90;;;;;;5791488;24;20206;-83
2023/09/09 07:28:37;;;;;;;23.40;20.75;;;20.80;99.90;;;;;;5715495;24;20310;-84
2023/09/09 09:04:36;;;;;;;18.13;16.38;;;24.50;82.00;;;;;;5669822;24;20776;-84
2023/09/09 09:50:37;;;;;;;11.90;10.63;;;25.10;78.90;;;;;;5852001;24;20263;-85
2023/09/09 10:15:22;;;;;;;10.20;9.20;;;25.70;66.10;;;;;;5793121;24;20657;-85
2023/09/09 10:31:01;;;;;;;13.57;11.93;;;25.30;66.70;;;;;;5797466;24;20192;-86
2023/09/09 10:51:29;;;;;;;11.95;10.60;;;25.30;69.30;;;;;;5837613;24;20218;-87
2023/09/09 11:16:56;;;;;;;10.15;9.25;;;25.30;69.10;;;;;;5870075;23;20183;-88
2023/09/09 11:37:01;;;;;;;11.02;8.73;;;25.60;66.50;;;;;;5834508;24;20194;-87
2023/09/09 13:26:37;;;;;;;9.45;8.50;;;27.70;62.40;;;;;;5907766;23;20542;-85
2023/09/09 13:47:21;;;;;;;9.63;8.63;;;27.50;61.40;;;;;;5817143;24;20182;-84
2023/09/09 14:43:05;;;;;;;11.43;8.05;;;27.40;60.50;;;;;;5538152;25;20931;-87
2023/09/09 15:23:43;;;;;;;8.57;7.78;;;26.10;62.20;;;;;;5619701;24;20858;-84
2023/09/09 15:44:09;;;;;;;9.10;8.20;;;25.70;62.40;;;;;;5578342;25;20206;-84
2023/09/09 16:09:15;;;;;;;10.00;8.20;;;24.60;82.90;;;;;;5746403;24;20236;-83
2023/09/09 16:49:55;;;;;;;10.45;9.15;;;23.20;90.40;;;;;;5728712;24;20161;-84
2023/09/09 17:15:19;;;;;;;11.13;10.02;;;21.20;99.90;;;;;;5684902;24;20290;-87
2023/09/09 17:40:35;;;;;;;12.73;11.45;;;20.30;99.90;;;;;;5490028;25;20339;-84
2023/09/09 18:06:04;;;;;;;15.97;12.87;;;19.60;99.90;;;;;;5487795;25;20260;-85
2023/09/09 18:35:52;;;;;;;16.57;12.53;;;19.60;99.90;;;;;;5615972;24;20721;-83
2023/09/09 19:01:16;;;;;;;13.33;12.03;;;19.10;99.90;;;;;;5616802;24;20215;-86
2023/09/09 19:27:11;;;;;;;14.17;12.67;;;18.40;99.90;;;;;;5902427;23;20871;-87
2023/09/09 20:02:40;;;;;;;15.30;13.70;;;17.70;99.90;;;;;;5927709;23;20256;-84
2023/09/09 20:33:04;;;;;;;18.27;14.53;;;17.30;99.90;;;;;;5605147;25;20189;-83
2023/09/09 20:58:28;;;;;;;16.40;14.60;;;17.00;99.90;;;;;;5723953;24;20710;-85
2023/09/09 21:18:20;;;;;;;17.97;15.80;;;16.80;99.90;;;;;;5775286;24;20179;-86
2023/09/09 21:54:18;;;;;;;21.40;18.17;;;16.30;99.90;;;;;;5712117;24;20729;-84
2023/09/09 22:50:03;;;;;;;20.33;18.17;;;15.70;99.90;;;;;;5637645;24;20202;-84
2023/09/09 23:10:15;;;;;;;22.07;19.73;;;15.60;99.90;;;;;;5773201;24;20180;-87
2023/09/09 23:40:13;;;;;;;22.10;19.70;;;15.30;99.90;;;;;;5634276;24;20462;-85
2023/09/09 23:55:40;;;;;;;22.40;20.00;;;15.10;99.90;;;;;;5629377;24;20187;-83
